Time;durP1;ratioP1;P1;durP2;ratioP2;P2;SDS_P1;SDS_P2;PMS_P1;PMS_P2;Temp;Humidity;BMP_temperature;BMP_pressure;BME280_temperature;BME280_humidity;BME280_pressure;Samples;Min_cycle;Max_cycle;Signal;HPM_P1;HPM_P2
2023/06/25 00:01:29;;;;;;;;;;;22.30;48.20;;;21.62;48.14;101794.16;12259411;19;19915;-89
2023/06/25 00:05:31;;;;;;;;;;;22.20;48.20;;;21.59;47.79;101799.75;12261060;19;19915;-89
2023/06/25 00:09:33;;;;;;;;;;;22.20;48.20;;;21.46;48.14;101781.31;12259331;19;19939;-89
2023/06/25 00:13:47;;;;;;;;;;;22.10;48.20;;;21.35;48.04;101781.38;12258521;19;19958;-89
2023/06/25 00:17:49;;;;;;;;;;;22.10;48.20;;;21.34;48.12;101782.34;12262368;19;19915;-90
2023/06/25 00:21:51;;;;;;;;;;;22.00;48.20;;;21.33;48.00;101784.16;12262477;19;19915;-90
2023/06/25 00:25:52;;;;;;;;;;;22.00;48.30;;;21.25;48.29;101780.44;12263136;19;20272;-89
2023/06/25 00:29:54;;;;;;;;;;;21.90;48.40;;;21.21;48.54;101771.91;12264854;19;19914;-91
2023/06/25 00:33:55;;;;;;;;;;;21.90;48.40;;;21.23;48.30;101790.38;12259695;19;19939;-89
2023/06/25 00:38:00;;;;;;;;;;;21.90;48.50;;;21.12;48.24;101775.34;12262454;19;19910;-90
2023/06/25 00:42:02;;;;;;;;;;;21.80;48.50;;;21.03;48.30;101762.81;12260816;19;20353;-89
2023/06/25 00:46:04;;;;;;;;;;;21.80;48.40;;;21.03;48.19;101766.28;12260105;19;19910;-89
2023/06/25 00:50:06;;;;;;;;;;;21.70;48.50;;;20.90;48.49;101747.03;12262190;19;19915;-89
2023/06/25 00:54:07;;;;;;;;;;;21.70;48.60;;;20.97;48.64;101769.47;12256774;19;19919;-89
2023/06/25 00:58:09;;;;;;;;;;;21.70;48.60;;;20.94;48.32;101767.06;12261504;19;19907;-89
2023/06/25 01:02:20;;;;;;;;;;;21.60;48.70;;;20.99;48.33;101783.47;12259164;19;19922;-89
2023/06/25 01:06:29;;;;;;;;;;;21.60;48.70;;;20.95;48.68;101779.34;12259884;19;19930;-90
2023/06/25 01:10:31;;;;;;;;;;;21.60;48.70;;;20.92;48.32;101780.44;12260060;19;19956;-89
2023/06/25 01:14:34;;;;;;;;;;;21.60;48.80;;;20.74;48.37;101756.28;12253634;19;19934;-90
2023/06/25 01:18:39;;;;;;;;;;;21.50;48.70;;;20.83;48.69;101767.09;12260154;19;19911;-89
2023/06/25 01:22:41;;;;;;;;;;;21.50;48.80;;;20.84;48.39;101780.25;12259429;19;19919;-89
2023/06/25 01:26:44;;;;;;;;;;;21.50;48.80;;;20.65;48.98;101748.22;12259170;19;19947;-89
2023/06/25 01:30:51;;;;;;;;;;;21.50;48.90;;;20.64;48.68;101750.03;12259032;19;19922;-90
2023/06/25 01:34:53;;;;;;;;;;;21.50;49.00;;;20.72;48.88;101758.22;12261031;19;20340;-90
2023/06/25 01:38:55;;;;;;;;;;;21.40;49.00;;;20.51;48.77;101720.94;12263830;19;19915;-89
2023/06/25 01:42:56;;;;;;;;;;;21.40;49.10;;;20.54;48.99;101727.84;12269716;19;20267;-90
2023/06/25 01:46:59;;;;;;;;;;;21.40;49.20;;;20.63;48.72;101736.88;12267680;19;20143;-90
2023/06/25 01:51:00;;;;;;;;;;;21.40;49.20;;;20.49;48.95;101725.53;12269641;19;19920;-89
2023/06/25 01:55:02;;;;;;;;;;;21.40;49.30;;;20.69;49.17;101750.50;12266484;19;19927;-90
2023/06/25 01:59:04;;;;;;;;;;;21.40;49.30;;;20.50;49.04;101711.31;12267697;19;19919;-89
2023/06/25 02:03:06;;;;;;;;;;;21.40;49.40;;;20.68;49.08;101729.38;12265319;19;19926;-89
2023/06/25 02:07:07;;;;;;;;;;;21.50;49.60;;;20.69;48.84;101739.03;12267131;19;19926;-89
2023/06/25 02:11:11;;;;;;;;;;;21.50;49.50;;;20.71;49.07;101739.72;12266259;19;20287;-90
2023/06/25 02:15:13;;;;;;;;;;;21.50;49.50;;;20.67;48.94;101739.16;12265136;19;19939;-89
2023/06/25 02:19:14;;;;;;;;;;;21.50;49.50;;;20.69;48.95;101736.38;12263201;19;19952;-89
2023/06/25 02:23:16;;;;;;;;;;;21.50;49.70;;;20.66;49.21;101739.31;12260245;19;20334;-90
2023/06/25 02:27:19;;;;;;;;;;;21.50;49.70;;;20.72;49.39;101741.44;12264031;19;20336;-90
2023/06/25 02:31:21;;;;;;;;;;;21.50;49.70;;;20.71;49.26;101747.69;12266285;19;20024;-90
2023/06/25 02:35:23;;;;;;;;;;;21.50;49.70;;;20.50;49.59;101705.16;12265121;19;19914;-90
2023/06/25 02:39:24;;;;;;;;;;;21.50;49.90;;;20.47;49.61;101706.25;12266964;19;19915;-90
2023/06/25 02:43:26;;;;;;;;;;;21.50;49.80;;;20.38;49.31;101691.06;12262541;19;20344;-90
2023/06/25 02:47:28;;;;;;;;;;;21.50;49.90;;;20.60;49.58;101727.34;12264998;19;19942;-90
2023/06/25 02:51:30;;;;;;;;;;;21.50;49.90;;;20.54;49.64;101726.03;12263044;19;19974;-89
2023/06/25 02:55:31;;;;;;;;;;;21.40;49.80;;;20.55;49.62;101725.09;12264938;19;19911;-89
2023/06/25 02:59:33;;;;;;;;;;;21.40;50.00;;;20.59;49.75;101730.97;12264081;19;19915;-89
2023/06/25 03:03:35;;;;;;;;;;;21.40;50.10;;;20.40;49.67;101702.41;12261062;19;19915;-89
2023/06/25 03:07:37;;;;;;;;;;;21.40;50.10;;;20.65;49.49;101729.63;12260877;19;20394;-89
2023/06/25 03:11:39;;;;;;;;;;;21.40;50.20;;;20.65;49.59;101725.16;12261958;19;19974;-88
2023/06/25 03:15:41;;;;;;;;;;;21.50;50.30;;;20.66;49.77;101718.91;12262588;19;19919;-89
2023/06/25 03:19:42;;;;;;;;;;;21.50;50.30;;;20.73;49.67;101727.19;12261357;19;19929;-89
2023/06/25 03:23:44;;;;;;;;;;;21.50;50.30;;;20.74;49.95;101719.09;12259671;19;20601;-88
2023/06/25 03:27:46;;;;;;;;;;;21.50;50.30;;;20.77;49.79;101718.84;12260777;19;19919;-89
2023/06/25 03:31:49;;;;;;;;;;;21.60;50.40;;;20.66;49.90;101684.41;12259704;19;19952;-89
2023/06/25 03:35:54;;;;;;;;;;;21.60;50.40;;;20.81;50.00;101697.34;12259761;19;19930;-89
2023/06/25 03:39:56;;;;;;;;;;;21.70;50.50;;;20.92;49.91;101718.53;12259992;19;19918;-89
2023/06/25 03:43:58;;;;;;;;;;;21.70;50.50;;;20.97;49.96;101713.69;12255066;19;19978;-89
2023/06/25 03:47:59;;;;;;;;;;;21.80;50.60;;;20.94;50.35;101698.03;12253985;19;19919;-89
2023/06/25 03:52:01;;;;;;;;;;;21.90;50.60;;;21.06;49.89;101712.06;12257679;19;19961;-89
2023/06/25 03:56:03;;;;;;;;;;;21.80;50.60;;;20.90;49.90;101676.19;12257264;19;19966;-89
2023/06/25 04:00:06;;;;;;;;;;;21.90;50.90;;;21.04;50.22;101698.94;12259162;19;19918;-89
2023/06/25 04:04:14;;;;;;;;;;;21.90;50.60;;;21.01;50.29;101704.50;12257671;19;20317;-89
2023/06/25 04:08:16;;;;;;;;;;;21.90;50.60;;;20.93;49.96;101694.53;12258337;19;20261;-89
2023/06/25 04:12:18;;;;;;;;;;;21.90;50.50;;;21.00;50.10;101716.94;12258332;19;19929;-90
2023/06/25 04:16:20;;;;;;;;;;;21.90;50.60;;;20.98;50.03;101716.22;12260572;19;19911;-89
2023/06/25 04:20:25;;;;;;;;;;;21.90;50.70;;;21.01;50.35;101720.44;12261085;19;19948;-89
2023/06/25 04:24:27;;;;;;;;;;;21.90;50.70;;;20.97;50.10;101709.22;12258539;19;19925;-89
2023/06/25 04:28:29;;;;;;;;;;;21.80;50.70;;;20.97;50.63;101709.22;12258006;19;19938;-89
2023/06/25 04:32:32;;;;;;;;;;;21.90;50.80;;;21.00;50.40;101698.34;12259524;19;19930;-89
2023/06/25 04:36:34;;;;;;;;;;;21.90;50.90;;;20.97;50.48;101695.94;12260431;19;19946;-89
2023/06/25 04:40:36;;;;;;;;;;;21.90;50.90;;;21.07;50.52;101701.34;12259191;19;19906;-89
2023/06/25 04:44:40;;;;;;;;;;;21.90;51.00;;;21.05;50.69;101695.31;12257472;19;19927;-89
2023/06/25 04:48:44;;;;;;;;;;;22.00;51.10;;;21.10;50.71;101698.41;12257571;19;19915;-89
2023/06/25 04:52:46;;;;;;;;;;;22.00;51.10;;;21.14;50.82;101696.34;12258986;19;19915;-89
2023/06/25 04:56:47;;;;;;;;;;;22.00;51.30;;;20.89;50.68;101652.41;12260055;19;19934;-89
2023/06/25 05:00:48;;;;;;;;;;;22.10;51.30;;;21.20;50.77;101698.50;12258649;19;19926;-90
2023/06/25 05:04:50;;;;;;;;;;;22.10;51.30;;;21.25;51.00;101696.25;12258006;19;19919;-89
2023/06/25 05:08:52;;;;;;;;;;;22.20;51.40;;;21.16;50.47;101665.19;12254033;19;19911;-89
2023/06/25 05:12:53;;;;;;;;;;;22.30;51.50;;;21.34;50.71;101681.38;12247118;19;20401;-89
2023/06/25 05:16:54;;;;;;;;;;;22.30;51.60;;;21.37;50.88;101684.63;12262112;19;19915;-89
2023/06/25 05:20:56;;;;;;;;;;;22.40;51.60;;;21.51;50.98;101704.69;12260900;19;20331;-89
2023/06/25 05:24:58;;;;;;;;;;;22.40;51.60;;;21.48;51.19;101691.69;12260671;19;19911;-89
2023/06/25 05:29:01;;;;;;;;;;;22.40;51.60;;;21.57;50.78;101698.00;12254446;19;19922;-89
2023/06/25 05:33:03;;;;;;;;;;;22.50;51.60;;;21.65;51.16;101707.00;12254940;19;20336;-89
2023/06/25 05:37:05;;;;;;;;;;;22.50;51.70;;;21.51;51.07;101671.97;12258555;19;19915;-89
2023/06/25 05:41:07;;;;;;;;;;;22.60;51.50;;;21.73;50.79;101705.50;12258851;19;19937;-89
2023/06/25 05:45:09;;;;;;;;;;;22.60;51.50;;;21.73;51.39;101703.69;12256045;19;19957;-89
2023/06/25 05:49:11;;;;;;;;;;;22.70;51.60;;;21.74;51.11;101696.53;12254927;19;20357;-89
2023/06/25 05:53:13;;;;;;;;;;;22.70;51.70;;;21.84;51.03;101702.75;12253204;19;19962;-90
2023/06/25 05:57:14;;;;;;;;;;;22.80;51.50;;;21.94;51.28;101713.44;12259031;19;19922;-89
2023/06/25 06:01:15;;;;;;;;;;;22.80;51.50;;;21.87;51.17;101692.69;12253623;19;19919;-90
2023/06/25 06:05:17;;;;;;;;;;;22.90;51.40;;;21.75;51.47;101669.84;12252376;19;19923;-89
2023/06/25 06:09:18;;;;;;;;;;;23.00;51.40;;;22.10;51.49;101719.09;12258211;19;19974;-89
2023/06/25 06:13:20;;;;;;;;;;;23.00;51.30;;;22.00;51.10;101692.44;12254996;19;19931;-89
2023/06/25 06:17:21;;;;;;;;;;;23.00;51.30;;;22.10;51.35;101701.28;12255828;19;20231;-89
2023/06/25 06:21:23;;;;;;;;;;;23.10;51.30;;;22.09;51.36;101686.31;12258392;19;19918;-90
2023/06/25 06:25:25;;;;;;;;;;;23.10;51.20;;;22.22;51.51;101695.88;12256752;19;19919;-89
2023/06/25 06:29:26;;;;;;;;;;;23.20;51.30;;;22.33;51.56;101711.72;12252865;19;19919;-85
2023/06/25 06:33:28;;;;;;;;;;;23.30;51.40;;;22.36;51.18;101700.84;12252924;19;19907;-85
2023/06/25 06:37:30;;;;;;;;;;;23.30;51.30;;;22.41;51.63;101695.06;12258117;19;20265;-86
2023/06/25 06:41:35;;;;;;;;;;;23.40;51.20;;;22.41;51.47;101684.44;12248487;19;20226;-85
2023/06/25 06:45:36;;;;;;;;;;;23.40;51.10;;;22.52;51.56;101687.81;12254456;19;19915;-86
2023/06/25 06:49:38;;;;;;;;;;;23.50;51.20;;;22.53;51.19;101686.84;12250093;19;19927;-86
2023/06/25 06:53:39;;;;;;;;;;;23.60;51.30;;;22.64;51.15;101683.19;12252418;19;19913;-85
2023/06/25 06:57:41;;;;;;;;;;;23.60;51.20;;;22.53;51.31;101657.56;12251603;19;19932;-85
2023/06/25 07:01:42;;;;;;;;;;;23.70;51.20;;;22.73;51.31;101684.16;12254380;19;19919;-86
2023/06/25 07:05:44;;;;;;;;;;;23.70;51.20;;;22.85;51.24;101680.38;12254729;19;19935;-86
2023/06/25 07:09:53;;;;;;;;;;;23.90;51.20;;;22.96;51.36;101695.41;12251549;19;19938;-85
2023/06/25 07:13:55;;;;;;;;;;;23.90;51.00;;;22.98;51.55;101682.81;12253036;19;19937;-86
2023/06/25 07:17:56;;;;;;;;;;;24.00;51.00;;;23.05;51.71;101669.75;12254518;19;20243;-84
2023/06/25 07:21:58;;;;;;;;;;;24.10;50.70;;;23.25;51.49;101690.03;12251526;19;20369;-85
2023/06/25 07:26:00;;;;;;;;;;;24.20;50.80;;;23.22;51.67;101657.50;12255570;19;20258;-85
2023/06/25 07:30:03;;;;;;;;;;;24.30;50.60;;;23.48;51.38;101685.19;12250769;19;19935;-85
2023/06/25 07:34:05;;;;;;;;;;;24.40;50.50;;;23.59;51.58;101678.84;12249325;19;20409;-86
2023/06/25 07:38:06;;;;;;;;;;;24.60;50.60;;;23.74;51.43;101684.59;12251262;19;20454;-86
2023/06/25 07:42:08;;;;;;;;;;;24.60;49.20;;;23.78;51.54;101665.44;12251085;19;20329;-88
2023/06/25 07:46:10;;;;;;;;;;;24.90;50.30;;;24.04;51.66;101675.44;12252116;19;20273;-86
2023/06/25 07:50:11;;;;;;;;;;;25.10;50.30;;;24.31;51.49;101687.91;12252447;19;20325;-86
2023/06/25 07:54:13;;;;;;;;;;;25.20;50.50;;;24.59;51.68;101683.34;12248599;19;19923;-86
2023/06/25 07:58:14;;;;;;;;;;;25.60;50.40;;;24.76;51.44;101676.31;12252371;19;19938;-87
2023/06/25 08:02:16;;;;;;;;;;;25.80;49.50;;;24.89;51.40;101675.91;12251311;19;19911;-87
2023/06/25 08:06:17;;;;;;;;;;;26.00;49.90;;;25.08;51.31;101693.59;12250745;19;19919;-86
2023/06/25 08:10:19;;;;;;;;;;;26.10;49.80;;;25.14;51.29;101672.44;12254002;19;19930;-86
2023/06/25 08:14:20;;;;;;;;;;;26.30;49.40;;;25.24;51.01;101668.84;12250265;19;19915;-86
2023/06/25 08:18:22;;;;;;;;;;;26.40;49.10;;;25.40;51.30;101674.28;12245996;19;19926;-85
2023/06/25 08:22:24;;;;;;;;;;;26.50;49.40;;;25.43;51.37;101667.78;12252944;19;19978;-86
2023/06/25 08:26:25;;;;;;;;;;;26.60;49.50;;;25.61;51.21;101680.09;12251345;19;20260;-85
2023/06/25 08:30:26;;;;;;;;;;;26.70;49.60;;;25.66;50.79;101670.75;12252937;19;19939;-86
2023/06/25 08:34:28;;;;;;;;;;;26.90;49.70;;;25.81;51.02;101669.13;12244502;19;19962;-87
2023/06/25 08:38:31;;;;;;;;;;;26.90;48.80;;;25.80;50.90;101656.75;12248856;19;19918;-86
2023/06/25 08:42:33;;;;;;;;;;;27.00;49.10;;;25.85;50.68;101650.94;12248226;19;19914;-86
2023/06/25 08:46:35;;;;;;;;;;;27.10;48.80;;;25.98;50.79;101660.19;12247766;19;19922;-86
2023/06/25 08:50:39;;;;;;;;;;;27.10;49.10;;;26.02;51.02;101656.19;12260578;19;19918;-85
2023/06/25 08:54:43;;;;;;;;;;;27.20;49.20;;;26.18;50.44;101663.41;12253203;19;19918;-86
2023/06/25 08:58:47;;;;;;;;;;;27.20;49.10;;;25.87;50.90;101598.94;12261871;19;19929;-85
2023/06/25 09:02:49;;;;;;;;;;;27.30;48.90;;;26.26;50.39;101646.53;12259678;19;20312;-85
2023/06/25 09:06:50;;;;;;;;;;;27.40;49.20;;;26.44;50.79;101660.63;12260128;19;19918;-86
2023/06/25 09:10:53;;;;;;;;;;;27.50;49.30;;;26.49;50.32;101652.06;12259964;19;19918;-85
2023/06/25 09:14:56;;;;;;;;;;;27.60;49.10;;;26.56;50.40;101647.75;12258708;19;19936;-86
2023/06/25 09:19:01;;;;;;;;;;;27.70;49.20;;;26.68;50.53;101653.59;12258821;19;19914;-86
2023/06/25 09:23:04;;;;;;;;;;;27.70;49.00;;;26.68;50.35;101649.09;12252276;19;19921;-86
2023/06/25 09:27:06;;;;;;;;;;;27.80;48.90;;;26.64;50.03;101622.78;12241852;19;19923;-85
2023/06/25 09:31:08;;;;;;;;;;;27.90;48.80;;;26.64;50.17;101617.44;12248619;19;19929;-85
2023/06/25 09:35:09;;;;;;;;;;;27.90;48.90;;;26.85;50.17;101647.25;12250752;19;20311;-86
2023/06/25 09:39:14;;;;;;;;;;;27.90;48.60;;;26.75;50.41;101616.25;12254576;19;19934;-85
2023/06/25 09:43:15;;;;;;;;;;;28.00;48.70;;;26.93;50.57;101639.19;12253490;19;20274;-84
2023/06/25 09:47:19;;;;;;;;;;;28.00;48.80;;;26.98;49.75;101621.75;12251536;19;19911;-84
2023/06/25 09:51:21;;;;;;;;;;;28.10;48.70;;;26.98;50.10;101605.66;12251651;19;19914;-85
2023/06/25 09:55:33;;;;;;;;;;;28.10;48.60;;;27.22;49.88;101628.91;12253017;19;19926;-86
2023/06/25 09:59:38;;;;;;;;;;;28.20;48.70;;;27.35;49.87;101632.75;12249630;19;20325;-86
2023/06/25 10:03:40;;;;;;;;;;;28.30;48.80;;;27.34;49.96;101612.28;12250649;19;20325;-86
2023/06/25 10:07:43;;;;;;;;;;;28.40;48.70;;;27.51;49.79;101622.97;12250517;19;19923;-86
2023/06/25 10:11:52;;;;;;;;;;;28.50;48.60;;;27.50;50.04;101594.47;12251044;19;19982;-86
2023/06/25 10:16:01;;;;;;;;;;;28.60;48.50;;;27.70;49.79;101611.78;12254397;19;20323;-85
2023/06/25 10:20:04;;;;;;;;;;;28.70;48.50;;;27.82;49.62;101609.59;12252046;19;19922;-85
2023/06/25 10:24:06;;;;;;;;;;;28.80;48.50;;;27.93;49.64;101603.81;12245885;19;19919;-85
2023/06/25 10:28:10;;;;;;;;;;;28.90;48.40;;;28.00;49.52;101599.41;12250214;19;19967;-85
2023/06/25 10:32:14;;;;;;;;;;;29.00;48.40;;;28.14;49.42;101602.31;12251108;19;19923;-84
2023/06/25 10:36:23;;;;;;;;;;;29.10;48.30;;;28.17;49.40;101583.19;12247770;19;19929;-86
2023/06/25 10:40:31;;;;;;;;;;;29.20;47.70;;;28.28;49.54;101593.50;12246173;19;19936;-87
2023/06/25 10:44:34;;;;;;;;;;;29.30;48.10;;;28.25;49.66;101564.31;12245286;19;19914;-86
2023/06/25 10:48:35;;;;;;;;;;;29.40;48.10;;;28.49;49.17;101592.00;12245976;19;19944;-87
2023/06/25 10:52:37;;;;;;;;;;;29.50;47.80;;;28.54;49.23;101587.75;12248548;19;19915;-86
2023/06/25 10:56:39;;;;;;;;;;;29.60;47.90;;;28.57;49.02;101581.16;12247892;19;19937;-85
2023/06/25 11:00:41;;;;;;;;;;;29.60;48.00;;;28.69;49.12;101574.34;12249713;19;19952;-86
2023/06/25 11:04:52;;;;;;;;;;;29.70;48.00;;;28.61;48.83;101540.31;12244238;19;19918;-85
2023/06/25 11:08:54;;;;;;;;;;;29.80;47.90;;;28.83;48.77;101560.06;12246350;19;19991;-86
2023/06/25 11:12:56;;;;;;;;;;;29.90;48.00;;;28.96;48.86;101567.50;12243262;19;20349;-86
2023/06/25 11:16:58;;;;;;;;;;;29.90;47.70;;;28.98;48.73;101548.50;12248978;19;19932;-86
2023/06/25 11:21:03;;;;;;;;;;;30.00;47.70;;;29.10;48.97;101550.56;12247297;19;19943;-85
2023/06/25 11:25:06;;;;;;;;;;;30.10;47.70;;;29.18;48.50;101551.47;12245634;19;19937;-86
2023/06/25 11:29:11;;;;;;;;;;;30.20;47.70;;;29.25;48.46;101552.41;12244764;19;19918;-87
2023/06/25 11:33:17;;;;;;;;;;;30.20;47.60;;;29.31;48.38;101549.78;12248424;19;19919;-86
2023/06/25 11:37:19;;;;;;;;;;;30.20;47.30;;;29.38;48.53;101547.19;12249575;19;19925;-85
2023/06/25 11:41:27;;;;;;;;;;;30.30;47.40;;;29.46;48.54;101535.47;12247426;19;19922;-84
2023/06/25 11:45:43;;;;;;;;;;;30.40;47.50;;;29.53;48.41;101526.44;12246581;19;19923;-85
2023/06/25 11:49:52;;;;;;;;;;;30.50;47.60;;;29.51;47.98;101504.25;12245489;19;19934;-85
2023/06/25 11:53:54;;;;;;;;;;;30.60;47.60;;;29.68;48.08;101515.66;12242927;19;19919;-86
2023/06/25 11:57:55;;;;;;;;;;;30.70;47.20;;;29.62;48.32;101497.53;12246309;19;20272;-86
2023/06/25 12:01:57;;;;;;;;;;;30.70;46.30;;;29.75;47.87;101513.84;12246667;19;19917;-86
2023/06/25 12:05:58;;;;;;;;;;;30.80;47.30;;;29.77;47.61;101509.13;12248999;19;19915;-86
2023/06/25 12:10:00;;;;;;;;;;;30.80;46.90;;;29.80;47.63;101507.91;12238765;19;19963;-86
2023/06/25 12:14:01;;;;;;;;;;;30.80;46.90;;;29.74;47.72;101495.22;12242904;19;19914;-86
2023/06/25 12:18:03;;;;;;;;;;;30.80;47.00;;;29.87;47.56;101503.44;12243231;19;20344;-86
2023/06/25 12:22:04;;;;;;;;;;;30.80;46.90;;;29.84;47.46;101487.66;12241050;19;20969;-86
2023/06/25 12:26:12;;;;;;;;;;;30.80;46.90;;;29.86;47.24;101496.34;12246381;19;19922;-87
2023/06/25 12:30:14;;;;;;;;;;;30.80;46.50;;;29.84;47.19;101479.56;12243709;19;20262;-86
2023/06/25 12:34:18;;;;;;;;;;;30.80;46.70;;;29.85;47.17;101466.94;12243654;19;19919;-87
2023/06/25 12:38:19;;;;;;;;;;;30.80;46.10;;;29.96;47.27;101486.09;12248801;19;19919;-86
2023/06/25 12:42:21;;;;;;;;;;;30.90;46.30;;;30.03;47.38;101479.91;12244641;19;19925;-87
2023/06/25 12:46:22;;;;;;;;;;;30.80;46.70;;;30.09;47.21;101477.28;12244748;19;19915;-87
2023/06/25 12:50:27;;;;;;;;;;;31.00;46.20;;;30.12;46.87;101463.44;12247747;19;19922;-86
2023/06/25 12:54:31;;;;;;;;;;;31.10;46.60;;;30.25;47.06;101472.69;12243941;19;19943;-86
2023/06/25 12:58:33;;;;;;;;;;;31.10;45.90;;;30.29;46.68;101463.16;12247578;19;19947;-86
2023/06/25 13:02:35;;;;;;;;;;;31.20;46.20;;;30.19;47.04;101431.13;12243579;19;19914;-88
2023/06/25 13:06:36;;;;;;;;;;;31.20;45.90;;;30.41;46.79;101459.72;12246135;19;19922;-87
2023/06/25 13:10:38;;;;;;;;;;;31.20;45.60;;;30.50;46.92;101467.66;12246158;19;20285;-86
2023/06/25 13:14:42;;;;;;;;;;;31.30;45.90;;;30.37;46.55;101427.97;12241531;19;19919;-86
2023/06/25 13:18:44;;;;;;;;;;;31.40;46.10;;;30.54;46.36;101455.44;12240339;19;20412;-86
2023/06/25 13:22:45;;;;;;;;;;;31.50;46.10;;;30.58;46.60;101462.94;12237921;19;20271;-86
2023/06/25 13:26:51;;;;;;;;;;;31.40;46.00;;;30.62;46.10;101466.03;12241983;19;19919;-86
2023/06/25 13:30:54;;;;;;;;;;;31.50;45.80;;;30.56;46.08;101456.91;12241550;19;19919;-87
2023/06/25 13:34:55;;;;;;;;;;;31.40;45.80;;;30.51;46.37;101455.81;12241218;19;19919;-85
2023/06/25 13:38:56;;;;;;;;;;;31.40;45.80;;;30.43;46.04;101448.72;12252067;19;19921;-87
2023/06/25 13:43:01;;;;;;;;;;;31.40;45.80;;;30.50;46.27;101460.38;12250914;19;19929;-87
2023/06/25 13:47:03;;;;;;;;;;;31.40;45.90;;;30.46;45.83;101452.88;12253361;19;19978;-87
2023/06/25 13:51:05;;;;;;;;;;;31.40;46.00;;;30.46;46.11;101442.97;12250077;19;19927;-87
2023/06/25 13:55:06;;;;;;;;;;;31.30;45.90;;;30.53;45.89;101459.16;12251510;19;19926;-87
2023/06/25 13:59:07;;;;;;;;;;;31.30;46.00;;;30.47;45.80;101460.78;12253042;19;19936;-87
2023/06/25 14:03:10;;;;;;;;;;;31.30;45.90;;;30.40;45.75;101444.56;12249831;19;19918;-87
2023/06/25 14:07:11;;;;;;;;;;;31.20;46.00;;;30.37;45.72;101439.56;12246700;19;19907;-87
2023/06/25 14:11:13;;;;;;;;;;;31.20;46.00;;;30.34;45.80;101433.75;12245916;19;19926;-87
2023/06/25 14:15:14;;;;;;;;;;;31.10;46.00;;;30.44;46.01;101450.41;12247644;19;20269;-87
2023/06/25 14:19:16;;;;;;;;;;;31.10;45.90;;;30.39;45.98;101436.69;12249026;19;19915;-85
2023/06/25 14:23:21;;;;;;;;;;;31.20;46.00;;;30.45;45.70;101443.97;12246873;19;20340;-88
2023/06/25 14:27:22;;;;;;;;;;;31.10;45.70;;;30.42;45.92;101430.91;12251217;19;19915;-86
2023/06/25 14:31:24;;;;;;;;;;;31.10;45.70;;;30.39;45.57;101424.03;12253622;19;19926;-86
2023/06/25 14:35:25;;;;;;;;;;;31.10;45.80;;;30.42;45.54;101431.72;12253744;19;20285;-87
2023/06/25 14:39:28;;;;;;;;;;;31.10;45.80;;;30.41;45.42;101424.69;12253504;19;19926;-86
2023/06/25 14:43:29;;;;;;;;;;;31.10;45.60;;;30.45;45.41;101432.38;12249576;19;19919;-86
2023/06/25 14:47:31;;;;;;;;;;;31.10;45.50;;;30.37;45.46;101407.22;12252978;19;19935;-86
2023/06/25 14:51:33;;;;;;;;;;;31.20;45.70;;;30.50;45.47;101419.13;12251478;19;19993;-86
2023/06/25 14:55:37;;;;;;;;;;;31.20;45.60;;;30.49;45.30;101407.53;12251965;19;19955;-87
2023/06/25 14:59:39;;;;;;;;;;;31.20;45.60;;;30.50;45.43;101405.66;12252363;19;19915;-87
2023/06/25 15:03:43;;;;;;;;;;;31.20;45.40;;;30.53;45.53;101407.94;12252465;19;19935;-87
2023/06/25 15:07:44;;;;;;;;;;;31.30;45.50;;;30.52;45.14;101406.28;12251903;19;19986;-86
2023/06/25 15:11:46;;;;;;;;;;;31.20;46.00;;;30.47;45.03;101400.66;12249505;19;19978;-87
2023/06/25 15:15:47;;;;;;;;;;;31.30;45.50;;;30.47;45.03;101392.56;12251344;19;19999;-86
2023/06/25 15:19:49;;;;;;;;;;;31.20;45.40;;;30.42;45.22;101382.38;12252917;19;19922;-87
2023/06/25 15:23:50;;;;;;;;;;;31.20;45.40;;;30.53;45.04;101389.06;12248459;19;19918;-85
2023/06/25 15:27:51;;;;;;;;;;;31.30;45.10;;;30.55;45.25;101395.94;12244819;19;20037;-85
2023/06/25 15:31:56;;;;;;;;;;;31.30;45.20;;;30.50;45.16;101382.22;12243214;19;19935;-86
2023/06/25 15:35:57;;;;;;;;;;;31.20;45.10;;;30.43;44.92;101374.09;12249836;19;19990;-85
2023/06/25 15:39:59;;;;;;;;;;;31.20;45.10;;;30.50;45.06;101376.81;12247772;19;19926;-86
2023/06/25 15:44:00;;;;;;;;;;;31.20;45.20;;;30.53;44.85;101372.91;12244133;19;19923;-85
2023/06/25 15:48:02;;;;;;;;;;;31.10;45.20;;;30.46;44.94;101354.00;12249782;19;20273;-86
2023/06/25 15:52:03;;;;;;;;;;;31.20;45.20;;;30.38;45.09;101337.97;12245446;19;19950;-86
2023/06/25 15:56:05;;;;;;;;;;;31.10;45.10;;;30.51;44.96;101350.69;12247248;19;19914;-85
2023/06/25 16:00:07;;;;;;;;;;;31.20;45.10;;;30.39;44.83;101328.88;12242412;19;19919;-85
2023/06/25 16:04:15;;;;;;;;;;;31.20;45.30;;;30.48;44.67;101334.91;12243194;19;20295;-85
2023/06/25 16:08:17;;;;;;;;;;;31.30;45.00;;;30.59;44.59;101340.56;12245675;19;19919;-85
2023/06/25 16:12:18;;;;;;;;;;;31.30;45.40;;;30.52;44.61;101337.03;12247286;19;19926;-86
2023/06/25 16:16:20;;;;;;;;;;;31.20;44.50;;;30.54;44.76;101337.66;12247755;19;19926;-86
2023/06/25 16:20:22;;;;;;;;;;;31.20;44.80;;;30.56;44.40;101340.13;12248104;19;19925;-85
2023/06/25 16:24:24;;;;;;;;;;;31.20;44.70;;;30.54;44.49;101328.72;12242670;19;19918;-84
2023/06/25 16:28:28;;;;;;;;;;;31.20;44.80;;;30.62;44.68;101328.53;12242763;19;19926;-87
2023/06/25 16:32:31;;;;;;;;;;;31.30;44.90;;;30.58;44.38;101311.94;12244375;19;19919;-87
2023/06/25 16:36:32;;;;;;;;;;;31.30;44.90;;;30.63;44.63;101311.34;12241820;19;20256;-86
2023/06/25 16:40:34;;;;;;;;;;;31.30;44.80;;;30.71;44.33;101319.25;12243068;19;20435;-86
2023/06/25 16:44:35;;;;;;;;;;;31.30;44.60;;;30.69;44.24;101318.59;12239061;19;20337;-86
2023/06/25 16:48:37;;;;;;;;;;;31.30;44.60;;;30.67;44.35;101312.59;12241373;19;19939;-86
2023/06/25 16:52:38;;;;;;;;;;;31.30;44.70;;;30.70;44.24;101314.88;12239470;19;19934;-86
2023/06/25 16:56:39;;;;;;;;;;;31.30;44.80;;;30.64;44.03;101321.09;12244808;19;19951;-86
2023/06/25 17:00:41;;;;;;;;;;;31.30;44.60;;;30.39;44.21;101285.75;12247857;19;19914;-86
2023/06/25 17:04:42;;;;;;;;;;;31.30;44.80;;;30.49;44.13;101312.31;12240750;19;19923;-87
2023/06/25 17:08:43;;;;;;;;;;;31.20;45.10;;;30.50;43.97;101320.22;12246057;19;19935;-86
2023/06/25 17:12:45;;;;;;;;;;;31.10;44.70;;;30.42;44.28;101307.72;12257676;19;19982;-87
2023/06/25 17:16:47;;;;;;;;;;;31.10;44.90;;;30.42;44.20;101312.31;12255289;19;20459;-86
2023/06/25 17:20:48;;;;;;;;;;;31.10;44.90;;;30.33;43.98;101305.44;12260011;19;19931;-86
2023/06/25 17:24:50;;;;;;;;;;;31.10;44.90;;;30.34;43.96;101317.88;12257266;19;19934;-87
2023/06/25 17:28:51;;;;;;;;;;;31.00;45.10;;;30.21;44.00;101294.34;12252923;19;19923;-87
2023/06/25 17:32:52;;;;;;;;;;;30.90;45.20;;;30.21;43.97;101305.13;12252894;19;20267;-86
2023/06/25 17:36:54;;;;;;;;;;;30.90;45.20;;;30.09;44.21;101291.41;12256787;19;19922;-87
2023/06/25 17:40:55;;;;;;;;;;;30.80;45.30;;;30.06;44.04;101304.44;12253373;19;19919;-87
2023/06/25 17:44:57;;;;;;;;;;;30.80;45.40;;;30.07;44.09;101320.41;12250896;19;19922;-86
2023/06/25 17:48:58;;;;;;;;;;;30.70;45.40;;;29.92;44.01;101296.28;12248628;19;19986;-84
2023/06/25 17:53:00;;;;;;;;;;;30.60;45.30;;;29.98;44.13;101317.03;12248271;19;20243;-87
2023/06/25 17:57:02;;;;;;;;;;;30.50;45.30;;;29.85;44.19;101290.03;12254260;19;20245;-87
2023/06/25 18:01:03;;;;;;;;;;;30.50;45.30;;;29.87;44.29;101301.44;12253687;19;19925;-87
2023/06/25 18:05:05;;;;;;;;;;;30.50;45.30;;;29.85;44.04;101303.50;12248582;19;19919;-84
2023/06/25 18:09:07;;;;;;;;;;;30.40;45.40;;;29.85;44.43;101308.06;12252602;19;19923;-85